sensor_id;sensor_type;location;lat;lon;timestamp;temperature;humidity
1137;DHT22;557;48.466;7.950;2023-05-07T00:02:43;14.20;99.90
1137;DHT22;557;48.466;7.950;2023-05-07T00:05:31;14.10;99.90
1137;DHT22;557;48.466;7.950;2023-05-07T00:08:20;14.10;99.90
1137;DHT22;557;48.466;7.950;2023-05-07T00:11:07;14.00;99.90
1137;DHT22;557;48.466;7.950;2023-05-07T00:13:55;14.00;99.90
1137;DHT22;557;48.466;7.950;2023-05-07T00:16:42;14.00;99.90
1137;DHT22;557;48.466;7.950;2023-05-07T00:19:29;13.90;99.90
1137;DHT22;557;48.466;7.950;2023-05-07T00:22:17;13.90;99.90
1137;DHT22;557;48.466;7.950;2023-05-07T00:25:07;14.00;99.90
1137;DHT22;557;48.466;7.950;2023-05-07T00:27:56;14.00;99.90
1137;DHT22;557;48.466;7.950;2023-05-07T00:30:43;14.10;99.90
1137;DHT22;557;48.466;7.950;2023-05-07T00:33:30;14.10;99.90
1137;DHT22;557;48.466;7.950;2023-05-07T00:36:18;14.00;99.90
1137;DHT22;557;48.466;7.950;2023-05-07T00:39:05;14.10;99.90
1137;DHT22;557;48.466;7.950;2023-05-07T00:41:54;14.10;99.90
1137;DHT22;557;48.466;7.950;2023-05-07T00:44:42;14.10;99.90
1137;DHT22;557;48.466;7.950;2023-05-07T00:47:29;14.00;99.90
1137;DHT22;557;48.466;7.950;2023-05-07T00:50:17;13.90;99.90
1137;DHT22;557;48.466;7.950;2023-05-07T00:53:05;13.90;99.90
1137;DHT22;557;48.466;7.950;2023-05-07T00:55:53;13.80;99.90
1137;DHT22;557;48.466;7.950;2023-05-07T00:58:42;13.80;99.90
1137;DHT22;557;48.466;7.950;2023-05-07T01:01:30;13.80;99.90
1137;DHT22;557;48.466;7.950;2023-05-07T01:04:18;13.70;99.90
1137;DHT22;557;48.466;7.950;2023-05-07T01:07:05;13.70;99.90
1137;DHT22;557;48.466;7.950;2023-05-07T01:09:53;13.60;99.90
1137;DHT22;557;48.466;7.950;2023-05-07T01:12:41;13.60;99.90
1137;DHT22;557;48.466;7.950;2023-05-07T01:15:30;13.60;99.90
1137;DHT22;557;48.466;7.950;2023-05-07T01:18:18;13.50;99.90
1137;DHT22;557;48.466;7.950;2023-05-07T01:21:08;13.50;99.90
1137;DHT22;557;48.466;7.950;2023-05-07T01:24:00;13.40;99.90
1137;DHT22;557;48.466;7.950;2023-05-07T01:26:47;13.30;99.90
1137;DHT22;557;48.466;7.950;2023-05-07T01:29:35;13.30;99.90
1137;DHT22;557;48.466;7.950;2023-05-07T01:32:29;13.30;99.90
1137;DHT22;557;48.466;7.950;2023-05-07T01:35:22;13.20;99.90
1137;DHT22;557;48.466;7.950;2023-05-07T01:38:12;13.20;99.90
1137;DHT22;557;48.466;7.950;2023-05-07T01:41:01;13.20;99.90
1137;DHT22;557;48.466;7.950;2023-05-07T01:43:50;13.10;99.90
1137;DHT22;557;48.466;7.950;2023-05-07T01:46:38;13.10;99.90
1137;DHT22;557;48.466;7.950;2023-05-07T01:49:25;13.00;99.90
1137;DHT22;557;48.466;7.950;2023-05-07T01:52:13;13.10;99.90
1137;DHT22;557;48.466;7.950;2023-05-07T01:55:01;13.00;99.90
1137;DHT22;557;48.466;7.950;2023-05-07T01:57:49;13.00;99.90
1137;DHT22;557;48.466;7.950;2023-05-07T02:00:37;13.00;99.90
1137;DHT22;557;48.466;7.950;2023-05-07T02:03:24;12.90;99.90
1137;DHT22;557;48.466;7.950;2023-05-07T02:06:11;13.00;99.90
1137;DHT22;557;48.466;7.950;2023-05-07T02:08:59;13.00;99.90
1137;DHT22;557;48.466;7.950;2023-05-07T02:11:46;13.00;99.90
1137;DHT22;557;48.466;7.950;2023-05-07T02:14:35;12.90;99.90
1137;DHT22;557;48.466;7.950;2023-05-07T02:17:22;12.80;99.90
1137;DHT22;557;48.466;7.950;2023-05-07T02:20:10;12.90;99.90
1137;DHT22;557;48.466;7.950;2023-05-07T02:22:59;12.90;99.90
1137;DHT22;557;48.466;7.950;2023-05-07T02:25:46;12.80;99.90
1137;DHT22;557;48.466;7.950;2023-05-07T02:28:33;12.80;99.90
1137;DHT22;557;48.466;7.950;2023-05-07T02:31:23;12.80;99.90
1137;DHT22;557;48.466;7.950;2023-05-07T02:34:10;12.70;99.90
1137;DHT22;557;48.466;7.950;2023-05-07T02:36:57;12.60;99.90
1137;DHT22;557;48.466;7.950;2023-05-07T02:39:46;12.50;99.90
1137;DHT22;557;48.466;7.950;2023-05-07T02:42:33;12.40;99.90
1137;DHT22;557;48.466;7.950;2023-05-07T02:45:20;12.30;99.90
1137;DHT22;557;48.466;7.950;2023-05-07T02:48:09;12.30;99.90
1137;DHT22;557;48.466;7.950;2023-05-07T02:50:56;12.30;99.90
1137;DHT22;557;48.466;7.950;2023-05-07T02:53:44;12.40;99.90
1137;DHT22;557;48.466;7.950;2023-05-07T02:56:31;12.30;99.90
1137;DHT22;557;48.466;7.950;2023-05-07T02:59:19;12.20;99.90
1137;DHT22;557;48.466;7.950;2023-05-07T03:02:06;12.20;99.90
1137;DHT22;557;48.466;7.950;2023-05-07T03:04:55;12.20;99.90
1137;DHT22;557;48.466;7.950;2023-05-07T03:07:42;12.20;99.90
1137;DHT22;557;48.466;7.950;2023-05-07T03:10:31;12.30;99.90
1137;DHT22;557;48.466;7.950;2023-05-07T03:13:18;12.30;99.90
1137;DHT22;557;48.466;7.950;2023-05-07T03:16:06;12.20;99.90
1137;DHT22;557;48.466;7.950;2023-05-07T03:18:53;12.20;99.90
1137;DHT22;557;48.466;7.950;2023-05-07T03:21:42;12.20;99.90
1137;DHT22;557;48.466;7.950;2023-05-07T03:24:29;12.10;99.90
1137;DHT22;557;48.466;7.950;2023-05-07T03:27:17;12.10;99.90
1137;DHT22;557;48.466;7.950;2023-05-07T03:30:05;12.00;99.90
1137;DHT22;557;48.466;7.950;2023-05-07T03:32:53;12.00;99.90
1137;DHT22;557;48.466;7.950;2023-05-07T03:35:40;12.00;99.90
1137;DHT22;557;48.466;7.950;2023-05-07T03:38:29;11.90;99.90
1137;DHT22;557;48.466;7.950;2023-05-07T03:41:17;11.90;99.90
1137;DHT22;557;48.466;7.950;2023-05-07T03:44:04;11.90;99.90
1137;DHT22;557;48.466;7.950;2023-05-07T03:46:51;11.90;99.90
1137;DHT22;557;48.466;7.950;2023-05-07T03:49:39;11.90;99.90
1137;DHT22;557;48.466;7.950;2023-05-07T03:52:26;11.90;99.90
1137;DHT22;557;48.466;7.950;2023-05-07T03:55:15;11.90;99.90
1137;DHT22;557;48.466;7.950;2023-05-07T03:58:02;11.80;99.90
1137;DHT22;557;48.466;7.950;2023-05-07T04:00:49;11.80;99.90
1137;DHT22;557;48.466;7.950;2023-05-07T04:03:37;11.80;99.90
1137;DHT22;557;48.466;7.950;2023-05-07T04:06:24;11.80;99.90
1137;DHT22;557;48.466;7.950;2023-05-07T04:09:11;11.80;99.90
1137;DHT22;557;48.466;7.950;2023-05-07T04:12:00;11.80;99.90
1137;DHT22;557;48.466;7.950;2023-05-07T04:14:48;11.80;99.90
1137;DHT22;557;48.466;7.950;2023-05-07T04:17:35;11.70;99.90
1137;DHT22;557;48.466;7.950;2023-05-07T04:20:23;11.70;99.90
1137;DHT22;557;48.466;7.950;2023-05-07T04:23:10;11.80;99.90
1137;DHT22;557;48.466;7.950;2023-05-07T04:25:58;11.80;99.90
1137;DHT22;557;48.466;7.950;2023-05-07T04:28:46;11.90;99.90
1137;DHT22;557;48.466;7.950;2023-05-07T04:31:34;12.00;99.90
1137;DHT22;557;48.466;7.950;2023-05-07T04:34:21;12.10;99.90
1137;DHT22;557;48.466;7.950;2023-05-07T04:37:08;12.20;99.90
1137;DHT22;557;48.466;7.950;2023-05-07T04:39:56;12.30;99.90
1137;DHT22;557;48.466;7.950;2023-05-07T04:42:43;12.40;99.90
1137;DHT22;557;48.466;7.950;2023-05-07T04:45:32;12.50;99.90
1137;DHT22;557;48.466;7.950;2023-05-07T04:48:20;12.50;99.90
1137;DHT22;557;48.466;7.950;2023-05-07T04:51:08;12.60;99.90
1137;DHT22;557;48.466;7.950;2023-05-07T04:53:55;12.70;99.90
1137;DHT22;557;48.466;7.950;2023-05-07T04:56:42;12.80;99.90
1137;DHT22;557;48.466;7.950;2023-05-07T04:59:29;12.80;99.90
1137;DHT22;557;48.466;7.950;2023-05-07T05:02:18;12.90;99.90
1137;DHT22;557;48.466;7.950;2023-05-07T05:05:06;12.90;99.90
1137;DHT22;557;48.466;7.950;2023-05-07T05:07:54;13.00;99.90
1137;DHT22;557;48.466;7.950;2023-05-07T05:10:41;13.10;99.90
1137;DHT22;557;48.466;7.950;2023-05-07T05:13:29;13.20;99.90
1137;DHT22;557;48.466;7.950;2023-05-07T05:16:17;13.20;99.90
1137;DHT22;557;48.466;7.950;2023-05-07T05:19:06;13.30;99.90
1137;DHT22;557;48.466;7.950;2023-05-07T05:21:53;13.40;99.90
1137;DHT22;557;48.466;7.950;2023-05-07T05:24:41;13.40;99.90
1137;DHT22;557;48.466;7.950;2023-05-07T05:27:28;13.40;99.90
1137;DHT22;557;48.466;7.950;2023-05-07T05:30:16;13.50;99.90
1137;DHT22;557;48.466;7.950;2023-05-07T05:33:03;13.50;99.90
1137;DHT22;557;48.466;7.950;2023-05-07T05:35:53;13.50;99.90
1137;DHT22;557;48.466;7.950;2023-05-07T05:38:41;13.60;99.90
1137;DHT22;557;48.466;7.950;2023-05-07T05:41:28;13.50;99.90
1137;DHT22;557;48.466;7.950;2023-05-07T05:44:15;13.60;99.90
1137;DHT22;557;48.466;7.950;2023-05-07T05:47:03;13.60;99.90
1137;DHT22;557;48.466;7.950;2023-05-07T05:49:50;13.70;99.90
1137;DHT22;557;48.466;7.950;2023-05-07T05:52:39;13.70;99.90
1137;DHT22;557;48.466;7.950;2023-05-07T05:55:27;13.80;98.30
1137;DHT22;557;48.466;7.950;2023-05-07T05:58:14;14.00;99.90
1137;DHT22;557;48.466;7.950;2023-05-07T06:01:02;14.20;83.60
1137;DHT22;557;48.466;7.950;2023-05-07T06:03:49;14.40;52.00
1137;DHT22;557;48.466;7.950;2023-05-07T06:06:37;14.60;28.00
1137;DHT22;557;48.466;7.950;2023-05-07T06:09:25;14.70;11.40
1137;DHT22;557;48.466;7.950;2023-05-07T06:12:12;14.70;19.20
1137;DHT22;557;48.466;7.950;2023-05-07T06:15:00;14.70;9.70
1137;DHT22;557;48.466;7.950;2023-05-07T06:17:47;14.70;19.50
1137;DHT22;557;48.466;7.950;2023-05-07T06:20:35;14.70;23.00
1137;DHT22;557;48.466;7.950;2023-05-07T06:23:22;14.80;17.00
1137;DHT22;557;48.466;7.950;2023-05-07T06:26:11;14.80;1.00
1137;DHT22;557;48.466;7.950;2023-05-07T06:28:58;14.90;38.70
1137;DHT22;557;48.466;7.950;2023-05-07T06:31:45;15.00;1.00
1137;DHT22;557;48.466;7.950;2023-05-07T06:34:32;15.00;1.00
1137;DHT22;557;48.466;7.950;2023-05-07T06:37:20;15.00;1.00
1137;DHT22;557;48.466;7.950;2023-05-07T06:40:08;15.10;1.00
1137;DHT22;557;48.466;7.950;2023-05-07T06:42:57;15.20;1.00
1137;DHT22;557;48.466;7.950;2023-05-07T06:45:44;15.30;1.00
1137;DHT22;557;48.466;7.950;2023-05-07T06:48:31;15.40;1.00
1137;DHT22;557;48.466;7.950;2023-05-07T06:51:19;15.40;1.00
1137;DHT22;557;48.466;7.950;2023-05-07T06:54:06;15.40;1.00
1137;DHT22;557;48.466;7.950;2023-05-07T06:56:54;15.50;1.00
1137;DHT22;557;48.466;7.950;2023-05-07T06:59:42;15.60;1.00
1137;DHT22;557;48.466;7.950;2023-05-07T07:02:30;15.70;1.00
1137;DHT22;557;48.466;7.950;2023-05-07T07:05:17;15.80;1.00
1137;DHT22;557;48.466;7.950;2023-05-07T07:08:05;16.10;1.00
1137;DHT22;557;48.466;7.950;2023-05-07T07:10:52;16.10;1.00
1137;DHT22;557;48.466;7.950;2023-05-07T07:13:39;16.10;1.00
1137;DHT22;557;48.466;7.950;2023-05-07T07:16:28;16.10;1.00
1137;DHT22;557;48.466;7.950;2023-05-07T07:19:15;15.90;1.00
1137;DHT22;557;48.466;7.950;2023-05-07T07:22:03;15.90;1.00
1137;DHT22;557;48.466;7.950;2023-05-07T07:24:50;16.00;1.00
1137;DHT22;557;48.466;7.950;2023-05-07T07:27:38;16.30;1.00
1137;DHT22;557;48.466;7.950;2023-05-07T07:30:25;16.50;1.00
1137;DHT22;557;48.466;7.950;2023-05-07T07:33:14;16.60;1.00
1137;DHT22;557;48.466;7.950;2023-05-07T07:36:02;16.60;1.00
1137;DHT22;557;48.466;7.950;2023-05-07T07:38:49;16.50;1.00
1137;DHT22;557;48.466;7.950;2023-05-07T07:41:36;16.60;1.00
1137;DHT22;557;48.466;7.950;2023-05-07T07:44:23;16.80;1.00
1137;DHT22;557;48.466;7.950;2023-05-07T07:47:11;17.30;1.00
1137;DHT22;557;48.466;7.950;2023-05-07T07:49:59;17.80;1.00
1137;DHT22;557;48.466;7.950;2023-05-07T07:52:47;18.40;99.90
1137;DHT22;557;48.466;7.950;2023-05-07T07:55:38;18.70;1.00
1137;DHT22;557;48.466;7.950;2023-05-07T07:58:26;18.90;99.90
1137;DHT22;557;48.466;7.950;2023-05-07T08:01:13;19.10;1.00
1137;DHT22;557;48.466;7.950;2023-05-07T08:04:00;19.40;99.90
1137;DHT22;557;48.466;7.950;2023-05-07T08:06:50;19.70;1.00
1137;DHT22;557;48.466;7.950;2023-05-07T08:09:38;19.70;99.90
1137;DHT22;557;48.466;7.950;2023-05-07T08:12:25;19.70;99.90
1137;DHT22;557;48.466;7.950;2023-05-07T08:15:13;19.30;1.00
1137;DHT22;557;48.466;7.950;2023-05-07T08:18:02;19.10;99.90
1137;DHT22;557;48.466;7.950;2023-05-07T08:20:50;18.90;99.90
1137;DHT22;557;48.466;7.950;2023-05-07T08:23:39;18.50;99.90
1137;DHT22;557;48.466;7.950;2023-05-07T08:26:26;18.70;1.00
1137;DHT22;557;48.466;7.950;2023-05-07T08:29:13;19.20;1.00
1137;DHT22;557;48.466;7.950;2023-05-07T08:32:00;19.40;99.90
1137;DHT22;557;48.466;7.950;2023-05-07T08:34:48;19.30;99.90
1137;DHT22;557;48.466;7.950;2023-05-07T08:37:35;19.40;99.90
1137;DHT22;557;48.466;7.950;2023-05-07T08:40:26;19.50;1.00
1137;DHT22;557;48.466;7.950;2023-05-07T08:43:14;19.60;99.90
1137;DHT22;557;48.466;7.950;2023-05-07T08:46:01;19.60;1.00
1137;DHT22;557;48.466;7.950;2023-05-07T08:48:50;20.00;99.90
1137;DHT22;557;48.466;7.950;2023-05-07T08:51:37;20.50;1.00
1137;DHT22;557;48.466;7.950;2023-05-07T08:54:25;20.90;99.90
1137;DHT22;557;48.466;7.950;2023-05-07T08:57:14;20.90;99.90
1137;DHT22;557;48.466;7.950;2023-05-07T09:00:02;21.20;94.90
1137;DHT22;557;48.466;7.950;2023-05-07T09:02:49;21.30;99.90
1137;DHT22;557;48.466;7.950;2023-05-07T09:05:37;21.50;1.00
1137;DHT22;557;48.466;7.950;2023-05-07T09:08:25;21.60;1.00
1137;DHT22;557;48.466;7.950;2023-05-07T09:11:13;21.20;1.00
1137;DHT22;557;48.466;7.950;2023-05-07T09:14:02;21.10;99.90
1137;DHT22;557;48.466;7.950;2023-05-07T09:16:52;21.50;99.90
1137;DHT22;557;48.466;7.950;2023-05-07T09:19:39;21.50;1.00
1137;DHT22;557;48.466;7.950;2023-05-07T09:22:26;21.20;99.90
1137;DHT22;557;48.466;7.950;2023-05-07T09:25:14;21.00;1.00
1137;DHT22;557;48.466;7.950;2023-05-07T09:28:03;20.90;1.00
1137;DHT22;557;48.466;7.950;2023-05-07T09:30:55;21.10;1.00
1137;DHT22;557;48.466;7.950;2023-05-07T09:33:42;21.10;1.00
1137;DHT22;557;48.466;7.950;2023-05-07T09:40:20;21.20;1.00
1137;DHT22;557;48.466;7.950;2023-05-07T09:43:09;21.50;1.00
1137;DHT22;557;48.466;7.950;2023-05-07T09:45:59;21.50;1.00
1137;DHT22;557;48.466;7.950;2023-05-07T09:48:49;21.30;1.00
1137;DHT22;557;48.466;7.950;2023-05-07T09:51:43;21.30;1.00
1137;DHT22;557;48.466;7.950;2023-05-07T09:54:33;21.30;1.00
1137;DHT22;557;48.466;7.950;2023-05-07T09:57:20;21.20;1.00
1137;DHT22;557;48.466;7.950;2023-05-07T10:00:09;21.20;1.00
1137;DHT22;557;48.466;7.950;2023-05-07T10:03:00;21.30;1.00
1137;DHT22;557;48.466;7.950;2023-05-07T10:05:49;21.50;1.00
1137;DHT22;557;48.466;7.950;2023-05-07T10:08:37;21.80;1.00
1137;DHT22;557;48.466;7.950;2023-05-07T10:11:25;22.00;1.00
1137;DHT22;557;48.466;7.950;2023-05-07T10:14:12;22.20;99.90
1137;DHT22;557;48.466;7.950;2023-05-07T10:17:02;22.10;99.90
1137;DHT22;557;48.466;7.950;2023-05-07T10:19:53;22.30;1.00
1137;DHT22;557;48.466;7.950;2023-05-07T10:22:43;22.40;99.90
1137;DHT22;557;48.466;7.950;2023-05-07T10:25:31;22.10;99.90
1137;DHT22;557;48.466;7.950;2023-05-07T10:28:19;21.70;99.90
1137;DHT22;557;48.466;7.950;2023-05-07T10:31:18;21.70;99.90
1137;DHT22;557;48.466;7.950;2023-05-07T10:34:14;21.90;99.90
1137;DHT22;557;48.466;7.950;2023-05-07T10:37:05;22.00;99.90
1137;DHT22;557;48.466;7.950;2023-05-07T10:39:53;22.10;99.90
1137;DHT22;557;48.466;7.950;2023-05-07T10:42:53;22.30;99.90
1137;DHT22;557;48.466;7.950;2023-05-07T10:45:41;22.50;99.90
1137;DHT22;557;48.466;7.950;2023-05-07T10:48:29;22.30;99.90
1137;DHT22;557;48.466;7.950;2023-05-07T10:51:20;22.40;99.90
1137;DHT22;557;48.466;7.950;2023-05-07T10:54:24;22.70;99.90
1137;DHT22;557;48.466;7.950;2023-05-07T10:57:33;22.70;99.90
1137;DHT22;557;48.466;7.950;2023-05-07T11:00:41;22.70;99.90
1137;DHT22;557;48.466;7.950;2023-05-07T11:03:29;22.50;99.90
1137;DHT22;557;48.466;7.950;2023-05-07T11:06:16;22.50;99.90
1137;DHT22;557;48.466;7.950;2023-05-07T11:09:04;22.40;99.90
1137;DHT22;557;48.466;7.950;2023-05-07T11:11:52;22.40;99.90
1137;DHT22;557;48.466;7.950;2023-05-07T11:14:46;22.90;99.90
1137;DHT22;557;48.466;7.950;2023-05-07T11:17:34;23.10;99.90
1137;DHT22;557;48.466;7.950;2023-05-07T11:20:44;23.00;99.90
1137;DHT22;557;48.466;7.950;2023-05-07T11:23:57;23.30;99.90
1137;DHT22;557;48.466;7.950;2023-05-07T11:26:47;23.60;99.90
1137;DHT22;557;48.466;7.950;2023-05-07T11:29:36;23.30;99.90
1137;DHT22;557;48.466;7.950;2023-05-07T11:32:24;23.00;99.90
1137;DHT22;557;48.466;7.950;2023-05-07T11:35:11;23.00;99.90
1137;DHT22;557;48.466;7.950;2023-05-07T11:38:00;22.80;99.90
1137;DHT22;557;48.466;7.950;2023-05-07T11:40:52;22.80;99.90
1137;DHT22;557;48.466;7.950;2023-05-07T11:43:54;22.60;99.90
1137;DHT22;557;48.466;7.950;2023-05-07T11:46:44;22.30;99.90
1137;DHT22;557;48.466;7.950;2023-05-07T11:49:31;22.30;99.90
1137;DHT22;557;48.466;7.950;2023-05-07T11:52:20;22.50;99.90
1137;DHT22;557;48.466;7.950;2023-05-07T11:55:08;22.80;99.90
1137;DHT22;557;48.466;7.950;2023-05-07T11:57:55;22.80;99.90
1137;DHT22;557;48.466;7.950;2023-05-07T12:00:48;22.50;99.90
1137;DHT22;557;48.466;7.950;2023-05-07T12:03:37;22.30;99.90
1137;DHT22;557;48.466;7.950;2023-05-07T12:06:28;22.20;99.90
1137;DHT22;557;48.466;7.950;2023-05-07T12:09:15;22.20;99.90
1137;DHT22;557;48.466;7.950;2023-05-07T12:12:03;22.20;99.90
1137;DHT22;557;48.466;7.950;2023-05-07T12:14:51;22.20;99.90
1137;DHT22;557;48.466;7.950;2023-05-07T12:17:40;22.40;99.90
1137;DHT22;557;48.466;7.950;2023-05-07T12:20:28;22.40;99.90
1137;DHT22;557;48.466;7.950;2023-05-07T12:23:16;22.30;99.90
1137;DHT22;557;48.466;7.950;2023-05-07T12:26:04;22.30;99.90
1137;DHT22;557;48.466;7.950;2023-05-07T12:28:51;22.30;99.90
1137;DHT22;557;48.466;7.950;2023-05-07T12:31:40;22.30;99.90
1137;DHT22;557;48.466;7.950;2023-05-07T12:34:28;22.30;99.90
1137;DHT22;557;48.466;7.950;2023-05-07T12:37:23;22.20;99.90
1137;DHT22;557;48.466;7.950;2023-05-07T12:40:11;22.20;99.90
1137;DHT22;557;48.466;7.950;2023-05-07T12:42:59;22.40;99.90
1137;DHT22;557;48.466;7.950;2023-05-07T12:45:48;22.50;99.90
1137;DHT22;557;48.466;7.950;2023-05-07T12:48:37;22.50;99.90
1137;DHT22;557;48.466;7.950;2023-05-07T12:51:24;22.60;1.00
1137;DHT22;557;48.466;7.950;2023-05-07T12:54:13;22.20;1.00
1137;DHT22;557;48.466;7.950;2023-05-07T12:57:01;22.20;1.00
1137;DHT22;557;48.466;7.950;2023-05-07T12:59:49;22.30;1.00
1137;DHT22;557;48.466;7.950;2023-05-07T13:02:38;22.20;1.00
1137;DHT22;557;48.466;7.950;2023-05-07T13:05:26;22.00;1.00
1137;DHT22;557;48.466;7.950;2023-05-07T13:08:23;21.80;1.00
1137;DHT22;557;48.466;7.950;2023-05-07T13:11:13;21.70;1.00
1137;DHT22;557;48.466;7.950;2023-05-07T13:14:01;21.50;1.00
1137;DHT22;557;48.466;7.950;2023-05-07T13:16:48;21.30;1.00
1137;DHT22;557;48.466;7.950;2023-05-07T13:19:36;21.30;1.00
1137;DHT22;557;48.466;7.950;2023-05-07T13:22:23;21.70;1.00
1137;DHT22;557;48.466;7.950;2023-05-07T13:25:11;21.90;1.00
1137;DHT22;557;48.466;7.950;2023-05-07T13:28:00;21.50;1.00
1137;DHT22;557;48.466;7.950;2023-05-07T13:30:47;21.40;99.90
1137;DHT22;557;48.466;7.950;2023-05-07T13:33:34;21.40;99.90
1137;DHT22;557;48.466;7.950;2023-05-07T13:36:22;21.20;99.90
1137;DHT22;557;48.466;7.950;2023-05-07T13:39:09;20.90;99.90
1137;DHT22;557;48.466;7.950;2023-05-07T13:41:56;20.70;1.00
1137;DHT22;557;48.466;7.950;2023-05-07T13:44:45;20.70;1.00
1137;DHT22;557;48.466;7.950;2023-05-07T13:47:32;20.80;1.00
1137;DHT22;557;48.466;7.950;2023-05-07T13:50:20;21.00;1.00
1137;DHT22;557;48.466;7.950;2023-05-07T13:53:07;21.20;80.50
1137;DHT22;557;48.466;7.950;2023-05-07T13:55:55;21.20;1.00
1137;DHT22;557;48.466;7.950;2023-05-07T13:58:42;21.40;99.90
1137;DHT22;557;48.466;7.950;2023-05-07T14:01:31;21.40;1.00
1137;DHT22;557;48.466;7.950;2023-05-07T14:04:18;21.40;99.90
1137;DHT22;557;48.466;7.950;2023-05-07T14:07:05;21.30;99.90
1137;DHT22;557;48.466;7.950;2023-05-07T14:09:52;21.20;1.00
1137;DHT22;557;48.466;7.950;2023-05-07T14:12:40;21.10;99.90
1137;DHT22;557;48.466;7.950;2023-05-07T14:15:27;21.00;92.90
1137;DHT22;557;48.466;7.950;2023-05-07T14:18:16;21.20;99.90
1137;DHT22;557;48.466;7.950;2023-05-07T14:21:04;21.30;1.00
1137;DHT22;557;48.466;7.950;2023-05-07T14:23:52;21.30;1.00
1137;DHT22;557;48.466;7.950;2023-05-07T14:26:39;21.30;99.90
1137;DHT22;557;48.466;7.950;2023-05-07T14:29:27;21.20;99.90
1137;DHT22;557;48.466;7.950;2023-05-07T14:32:14;21.10;1.00
1137;DHT22;557;48.466;7.950;2023-05-07T14:35:03;21.00;99.90
1137;DHT22;557;48.466;7.950;2023-05-07T14:37:51;20.70;99.90
1137;DHT22;557;48.466;7.950;2023-05-07T14:40:38;20.90;99.90
1137;DHT22;557;48.466;7.950;2023-05-07T14:43:25;21.10;99.90
1137;DHT22;557;48.466;7.950;2023-05-07T14:46:13;21.10;13.30
1137;DHT22;557;48.466;7.950;2023-05-07T14:49:02;20.90;1.00
1137;DHT22;557;48.466;7.950;2023-05-07T14:51:51;20.80;98.50
1137;DHT22;557;48.466;7.950;2023-05-07T14:54:38;21.10;41.30
1137;DHT22;557;48.466;7.950;2023-05-07T14:57:25;21.40;1.00
1137;DHT22;557;48.466;7.950;2023-05-07T15:00:13;21.50;1.00
1137;DHT22;557;48.466;7.950;2023-05-07T15:03:05;21.30;1.00
1137;DHT22;557;48.466;7.950;2023-05-07T15:05:53;21.30;1.00
1137;DHT22;557;48.466;7.950;2023-05-07T15:08:42;21.50;1.00
1137;DHT22;557;48.466;7.950;2023-05-07T15:11:29;21.50;1.00
1137;DHT22;557;48.466;7.950;2023-05-07T15:14:17;21.70;99.90
1137;DHT22;557;48.466;7.950;2023-05-07T15:17:04;21.60;99.90
1137;DHT22;557;48.466;7.950;2023-05-07T15:19:51;21.70;1.00
1137;DHT22;557;48.466;7.950;2023-05-07T15:22:39;21.90;1.00
1137;DHT22;557;48.466;7.950;2023-05-07T15:25:28;21.80;1.00
1137;DHT22;557;48.466;7.950;2023-05-07T15:28:17;21.60;1.00
1137;DHT22;557;48.466;7.950;2023-05-07T15:31:04;21.30;99.90
1137;DHT22;557;48.466;7.950;2023-05-07T15:33:52;21.30;99.90
1137;DHT22;557;48.466;7.950;2023-05-07T15:36:40;21.30;99.90
1137;DHT22;557;48.466;7.950;2023-05-07T15:39:27;21.40;1.00
1137;DHT22;557;48.466;7.950;2023-05-07T15:42:16;21.60;99.90
1137;DHT22;557;48.466;7.950;2023-05-07T15:45:04;21.90;30.30
1137;DHT22;557;48.466;7.950;2023-05-07T15:47:52;22.20;1.00
1137;DHT22;557;48.466;7.950;2023-05-07T15:50:39;22.40;1.00
1137;DHT22;557;48.466;7.950;2023-05-07T15:53:26;22.80;1.00
1137;DHT22;557;48.466;7.950;2023-05-07T15:56:14;23.50;99.90
1137;DHT22;557;48.466;7.950;2023-05-07T15:59:03;24.30;99.90
1137;DHT22;557;48.466;7.950;2023-05-07T16:01:50;25.10;99.90
1137;DHT22;557;48.466;7.950;2023-05-07T16:04:38;25.00;99.90
1137;DHT22;557;48.466;7.950;2023-05-07T16:07:26;24.40;99.90
1137;DHT22;557;48.466;7.950;2023-05-07T16:10:14;23.60;99.90
1137;DHT22;557;48.466;7.950;2023-05-07T16:13:01;22.50;99.90
1137;DHT22;557;48.466;7.950;2023-05-07T16:15:54;21.80;99.90
1137;DHT22;557;48.466;7.950;2023-05-07T16:18:42;21.40;99.90
1137;DHT22;557;48.466;7.950;2023-05-07T16:21:29;21.40;99.90
1137;DHT22;557;48.466;7.950;2023-05-07T16:24:17;21.60;1.00
1137;DHT22;557;48.466;7.950;2023-05-07T16:27:05;21.80;99.90
1137;DHT22;557;48.466;7.950;2023-05-07T16:29:52;22.00;99.90
1137;DHT22;557;48.466;7.950;2023-05-07T16:32:41;22.40;99.90
1137;DHT22;557;48.466;7.950;2023-05-07T16:35:28;22.70;99.90
1137;DHT22;557;48.466;7.950;2023-05-07T16:38:16;22.40;99.90
1137;DHT22;557;48.466;7.950;2023-05-07T16:41:03;22.40;99.90
1137;DHT22;557;48.466;7.950;2023-05-07T16:43:51;22.30;99.90
1137;DHT22;557;48.466;7.950;2023-05-07T16:46:38;22.30;99.90
1137;DHT22;557;48.466;7.950;2023-05-07T16:49:27;22.30;99.90
1137;DHT22;557;48.466;7.950;2023-05-07T16:52:14;22.30;99.90
1137;DHT22;557;48.466;7.950;2023-05-07T16:55:02;22.20;99.90
1137;DHT22;557;48.466;7.950;2023-05-07T16:57:49;22.10;99.90
1137;DHT22;557;48.466;7.950;2023-05-07T17:00:37;22.00;99.90
1137;DHT22;557;48.466;7.950;2023-05-07T17:03:24;21.90;99.90
1137;DHT22;557;48.466;7.950;2023-05-07T17:06:13;21.70;99.90
1137;DHT22;557;48.466;7.950;2023-05-07T17:09:00;21.40;99.90
1137;DHT22;557;48.466;7.950;2023-05-07T17:11:48;21.10;1.00
1137;DHT22;557;48.466;7.950;2023-05-07T17:14:35;21.00;1.00
1137;DHT22;557;48.466;7.950;2023-05-07T17:17:22;20.90;1.00
1137;DHT22;557;48.466;7.950;2023-05-07T17:20:11;20.90;24.60
1137;DHT22;557;48.466;7.950;2023-05-07T17:23:00;20.80;1.00
1137;DHT22;557;48.466;7.950;2023-05-07T17:25:47;20.70;15.10
1137;DHT22;557;48.466;7.950;2023-05-07T17:28:34;20.70;12.10
1137;DHT22;557;48.466;7.950;2023-05-07T17:31:22;20.60;26.00
1137;DHT22;557;48.466;7.950;2023-05-07T17:34:09;20.50;99.90
1137;DHT22;557;48.466;7.950;2023-05-07T17:36:56;20.40;1.00
1137;DHT22;557;48.466;7.950;2023-05-07T17:39:45;20.30;1.00
1137;DHT22;557;48.466;7.950;2023-05-07T17:42:33;20.30;1.00
1137;DHT22;557;48.466;7.950;2023-05-07T17:45:21;20.20;1.00
1137;DHT22;557;48.466;7.950;2023-05-07T17:48:09;20.10;99.90
1137;DHT22;557;48.466;7.950;2023-05-07T17:51:00;20.00;99.90
1137;DHT22;557;48.466;7.950;2023-05-07T17:53:48;19.90;99.90
1137;DHT22;557;48.466;7.950;2023-05-07T17:56:38;19.80;99.90
1137;DHT22;557;48.466;7.950;2023-05-07T17:59:26;19.70;99.90
1137;DHT22;557;48.466;7.950;2023-05-07T18:02:14;19.40;1.00
1137;DHT22;557;48.466;7.950;2023-05-07T18:05:01;18.70;99.90
1137;DHT22;557;48.466;7.950;2023-05-07T18:07:49;18.20;99.90
1137;DHT22;557;48.466;7.950;2023-05-07T18:10:36;17.70;99.90
1137;DHT22;557;48.466;7.950;2023-05-07T18:13:25;17.30;99.90
1137;DHT22;557;48.466;7.950;2023-05-07T18:16:12;17.20;99.90
1137;DHT22;557;48.466;7.950;2023-05-07T18:19:01;17.10;99.90
1137;DHT22;557;48.466;7.950;2023-05-07T18:22:06;17.00;99.90
1137;DHT22;557;48.466;7.950;2023-05-07T18:24:53;16.90;99.90
1137;DHT22;557;48.466;7.950;2023-05-07T18:27:41;16.80;99.90
1137;DHT22;557;48.466;7.950;2023-05-07T18:30:30;16.80;99.90
1137;DHT22;557;48.466;7.950;2023-05-07T18:33:17;16.70;99.90
1137;DHT22;557;48.466;7.950;2023-05-07T18:36:05;16.70;99.90
1137;DHT22;557;48.466;7.950;2023-05-07T18:38:53;16.70;99.90
1137;DHT22;557;48.466;7.950;2023-05-07T18:41:40;16.60;99.90
1137;DHT22;557;48.466;7.950;2023-05-07T18:44:27;16.60;99.90
1137;DHT22;557;48.466;7.950;2023-05-07T18:47:17;16.60;99.90